sensor_id;sensor_type;location;lat;lon;timestamp;P1;durP1;ratioP1;P2;durP2;ratioP2
82779;SDS011;72511;45.120;20.720;2024-02-16T00:04:51;228.15;;;83.35;;
82779;SDS011;72511;45.120;20.720;2024-02-16T00:14:52;213.20;;;81.35;;
82779;SDS011;72511;45.120;20.720;2024-02-16T00:24:53;229.80;;;87.88;;
82779;SDS011;72511;45.120;20.720;2024-02-16T00:34:55;177.35;;;73.90;;
82779;SDS011;72511;45.120;20.720;2024-02-16T00:44:56;174.77;;;63.15;;
82779;SDS011;72511;45.120;20.720;2024-02-16T00:54:58;155.75;;;62.80;;
82779;SDS011;72511;45.120;20.720;2024-02-16T01:04:59;143.02;;;53.28;;
82779;SDS011;72511;45.120;20.720;2024-02-16T01:15:03;145.68;;;58.42;;
82779;SDS011;72511;45.120;20.720;2024-02-16T01:25:05;132.70;;;52.63;;
82779;SDS011;72511;45.120;20.720;2024-02-16T01:35:06;140.82;;;54.50;;
82779;SDS011;72511;45.120;20.720;2024-02-16T01:55:10;95.50;;;40.88;;
82779;SDS011;72511;45.120;20.720;2024-02-16T02:05:13;121.45;;;42.53;;
82779;SDS011;72511;45.120;20.720;2024-02-16T02:15:15;86.32;;;34.10;;
82779;SDS011;72511;45.120;20.720;2024-02-16T02:25:17;97.05;;;38.28;;
82779;SDS011;72511;45.120;20.720;2024-02-16T02:35:18;90.22;;;35.13;;
82779;SDS011;72511;45.120;20.720;2024-02-16T02:45:19;114.65;;;44.80;;
82779;SDS011;72511;45.120;20.720;2024-02-16T02:55:21;91.07;;;35.67;;
82779;SDS011;72511;45.120;20.720;2024-02-16T03:05:22;76.22;;;34.17;;
82779;SDS011;72511;45.120;20.720;2024-02-16T03:15:23;67.82;;;32.38;;
82779;SDS011;72511;45.120;20.720;2024-02-16T03:25:25;63.95;;;29.60;;
82779;SDS011;72511;45.120;20.720;2024-02-16T03:45:28;44.15;;;20.10;;
82779;SDS011;72511;45.120;20.720;2024-02-16T03:55:29;50.92;;;23.10;;
82779;SDS011;72511;45.120;20.720;2024-02-16T04:05:34;62.83;;;28.33;;
82779;SDS011;72511;45.120;20.720;2024-02-16T04:15:35;55.55;;;25.52;;
82779;SDS011;72511;45.120;20.720;2024-02-16T04:25:37;54.13;;;22.60;;
82779;SDS011;72511;45.120;20.720;2024-02-16T04:35:39;44.17;;;21.27;;
82779;SDS011;72511;45.120;20.720;2024-02-16T04:45:40;55.17;;;22.30;;
82779;SDS011;72511;45.120;20.720;2024-02-16T04:55:41;57.17;;;27.88;;
82779;SDS011;72511;45.120;20.720;2024-02-16T05:05:42;71.97;;;33.30;;
82779;SDS011;72511;45.120;20.720;2024-02-16T05:15:44;77.32;;;37.92;;
82779;SDS011;72511;45.120;20.720;2024-02-16T05:25:48;81.25;;;34.92;;
82779;SDS011;72511;45.120;20.720;2024-02-16T05:35:49;67.65;;;34.25;;
82779;SDS011;72511;45.120;20.720;2024-02-16T05:45:57;61.45;;;30.95;;
82779;SDS011;72511;45.120;20.720;2024-02-16T05:55:59;53.03;;;25.83;;
82779;SDS011;72511;45.120;20.720;2024-02-16T06:06:00;42.65;;;22.88;;
82779;SDS011;72511;45.120;20.720;2024-02-16T06:16:04;45.20;;;24.45;;
82779;SDS011;72511;45.120;20.720;2024-02-16T06:26:09;32.88;;;19.27;;
82779;SDS011;72511;45.120;20.720;2024-02-16T06:46:11;31.20;;;14.70;;
82779;SDS011;72511;45.120;20.720;2024-02-16T06:56:13;25.67;;;15.60;;
82779;SDS011;72511;45.120;20.720;2024-02-16T07:06:14;44.25;;;22.02;;
82779;SDS011;72511;45.120;20.720;2024-02-16T07:16:15;53.08;;;23.20;;
82779;SDS011;72511;45.120;20.720;2024-02-16T07:26:17;53.60;;;22.40;;
82779;SDS011;72511;45.120;20.720;2024-02-16T07:36:18;63.47;;;30.42;;
82779;SDS011;72511;45.120;20.720;2024-02-16T07:46:20;52.00;;;25.35;;
82779;SDS011;72511;45.120;20.720;2024-02-16T07:56:21;52.22;;;26.67;;
82779;SDS011;72511;45.120;20.720;2024-02-16T08:06:25;42.95;;;21.88;;
82779;SDS011;72511;45.120;20.720;2024-02-16T08:16:28;25.83;;;15.43;;
82779;SDS011;72511;45.120;20.720;2024-02-16T08:26:29;80.70;;;38.33;;
82779;SDS011;72511;45.120;20.720;2024-02-16T08:36:30;25.88;;;14.93;;
82779;SDS011;72511;45.120;20.720;2024-02-16T08:46:32;25.45;;;16.30;;
82779;SDS011;72511;45.120;20.720;2024-02-16T08:56:33;25.70;;;13.82;;
82779;SDS011;72511;45.120;20.720;2024-02-16T09:06:36;26.85;;;16.38;;
82779;SDS011;72511;45.120;20.720;2024-02-16T09:16:39;25.63;;;13.88;;
82779;SDS011;72511;45.120;20.720;2024-02-16T09:26:41;25.70;;;14.10;;
82779;SDS011;72511;45.120;20.720;2024-02-16T09:36:43;20.00;;;10.27;;
82779;SDS011;72511;45.120;20.720;2024-02-16T09:46:44;35.50;;;18.25;;
82779;SDS011;72511;45.120;20.720;2024-02-16T09:56:45;22.38;;;11.27;;
82779;SDS011;72511;45.120;20.720;2024-02-16T10:06:48;27.17;;;13.40;;
82779;SDS011;72511;45.120;20.720;2024-02-16T10:16:59;15.80;;;8.73;;
82779;SDS011;72511;45.120;20.720;2024-02-16T10:27:05;110.90;;;42.45;;
82779;SDS011;72511;45.120;20.720;2024-02-16T10:37:08;25.52;;;12.70;;
82779;SDS011;72511;45.120;20.720;2024-02-16T10:47:10;26.17;;;11.10;;
82779;SDS011;72511;45.120;20.720;2024-02-16T10:57:11;13.45;;;7.72;;
82779;SDS011;72511;45.120;20.720;2024-02-16T11:07:16;17.95;;;8.50;;
82779;SDS011;72511;45.120;20.720;2024-02-16T11:17:22;15.63;;;7.85;;
82779;SDS011;72511;45.120;20.720;2024-02-16T11:27:25;9.73;;;5.65;;
82779;SDS011;72511;45.120;20.720;2024-02-16T11:37:27;20.38;;;7.95;;
82779;SDS011;72511;45.120;20.720;2024-02-16T11:47:28;16.23;;;8.40;;
82779;SDS011;72511;45.120;20.720;2024-02-16T11:57:32;14.65;;;8.68;;
82779;SDS011;72511;45.120;20.720;2024-02-16T12:07:39;12.07;;;6.68;;
82779;SDS011;72511;45.120;20.720;2024-02-16T12:17:43;8.32;;;4.35;;
82779;SDS011;72511;45.120;20.720;2024-02-16T12:27:44;19.48;;;11.00;;
82779;SDS011;72511;45.120;20.720;2024-02-16T12:37:46;9.65;;;5.63;;
82779;SDS011;72511;45.120;20.720;2024-02-16T12:47:48;11.30;;;5.90;;
82779;SDS011;72511;45.120;20.720;2024-02-16T12:57:51;27.63;;;13.10;;
82779;SDS011;72511;45.120;20.720;2024-02-16T13:07:53;12.52;;;6.82;;
82779;SDS011;72511;45.120;20.720;2024-02-16T13:17:54;21.10;;;6.70;;
82779;SDS011;72511;45.120;20.720;2024-02-16T13:27:57;11.45;;;7.75;;
82779;SDS011;72511;45.120;20.720;2024-02-16T13:37:58;8.10;;;4.60;;
82779;SDS011;72511;45.120;20.720;2024-02-16T13:47:59;7.75;;;4.30;;
82779;SDS011;72511;45.120;20.720;2024-02-16T13:58:11;11.93;;;5.88;;
82779;SDS011;72511;45.120;20.720;2024-02-16T14:08:13;19.50;;;6.88;;
82779;SDS011;72511;45.120;20.720;2024-02-16T14:18:16;13.68;;;6.55;;
82779;SDS011;72511;45.120;20.720;2024-02-16T14:28:18;16.45;;;8.52;;
82779;SDS011;72511;45.120;20.720;2024-02-16T14:38:19;14.32;;;9.68;;
82779;SDS011;72511;45.120;20.720;2024-02-16T14:48:21;12.82;;;7.72;;
82779;SDS011;72511;45.120;20.720;2024-02-16T14:58:22;29.08;;;14.98;;
82779;SDS011;72511;45.120;20.720;2024-02-16T15:08:23;23.65;;;12.68;;
82779;SDS011;72511;45.120;20.720;2024-02-16T15:18:25;26.83;;;12.10;;
82779;SDS011;72511;45.120;20.720;2024-02-16T15:28:26;34.30;;;14.80;;
82779;SDS011;72511;45.120;20.720;2024-02-16T15:38:28;30.23;;;12.90;;
82779;SDS011;72511;45.120;20.720;2024-02-16T15:48:29;54.33;;;23.63;;
82779;SDS011;72511;45.120;20.720;2024-02-16T15:58:32;39.17;;;21.92;;
82779;SDS011;72511;45.120;20.720;2024-02-16T16:08:37;43.28;;;22.02;;
82779;SDS011;72511;45.120;20.720;2024-02-16T16:18:42;49.40;;;23.10;;
82779;SDS011;72511;45.120;20.720;2024-02-16T16:28:44;53.08;;;28.27;;
82779;SDS011;72511;45.120;20.720;2024-02-16T16:38:45;120.82;;;50.60;;
82779;SDS011;72511;45.120;20.720;2024-02-16T16:48:47;103.72;;;47.17;;
82779;SDS011;72511;45.120;20.720;2024-02-16T16:58:49;90.80;;;41.45;;
82779;SDS011;72511;45.120;20.720;2024-02-16T17:08:50;135.82;;;57.60;;
82779;SDS011;72511;45.120;20.720;2024-02-16T17:18:52;163.48;;;66.38;;
82779;SDS011;72511;45.120;20.720;2024-02-16T17:28:54;205.05;;;86.25;;
82779;SDS011;72511;45.120;20.720;2024-02-16T17:38:55;228.73;;;98.85;;
82779;SDS011;72511;45.120;20.720;2024-02-16T17:48:58;179.90;;;78.50;;
82779;SDS011;72511;45.120;20.720;2024-02-16T17:59:03;297.95;;;157.07;;
82779;SDS011;72511;45.120;20.720;2024-02-16T18:09:06;185.68;;;78.53;;
82779;SDS011;72511;45.120;20.720;2024-02-16T18:19:08;194.68;;;75.95;;
82779;SDS011;72511;45.120;20.720;2024-02-16T18:29:10;232.35;;;99.00;;
82779;SDS011;72511;45.120;20.720;2024-02-16T18:39:11;181.80;;;76.60;;
82779;SDS011;72511;45.120;20.720;2024-02-16T18:49:13;94.53;;;39.97;;
82779;SDS011;72511;45.120;20.720;2024-02-16T18:59:17;84.10;;;33.88;;
82779;SDS011;72511;45.120;20.720;2024-02-16T19:09:19;63.75;;;28.70;;
82779;SDS011;72511;45.120;20.720;2024-02-16T19:19:20;72.38;;;30.25;;
82779;SDS011;72511;45.120;20.720;2024-02-16T19:29:22;85.90;;;31.80;;
82779;SDS011;72511;45.120;20.720;2024-02-16T19:39:25;91.18;;;37.60;;
82779;SDS011;72511;45.120;20.720;2024-02-16T19:49:27;123.55;;;42.05;;
82779;SDS011;72511;45.120;20.720;2024-02-16T19:59:29;85.40;;;34.13;;
82779;SDS011;72511;45.120;20.720;2024-02-16T20:09:31;86.50;;;33.80;;
82779;SDS011;72511;45.120;20.720;2024-02-16T20:19:32;36.08;;;16.05;;
82779;SDS011;72511;45.120;20.720;2024-02-16T20:29:34;31.88;;;13.85;;
82779;SDS011;72511;45.120;20.720;2024-02-16T20:39:36;23.52;;;10.55;;
82779;SDS011;72511;45.120;20.720;2024-02-16T20:49:40;22.20;;;11.68;;
82779;SDS011;72511;45.120;20.720;2024-02-16T20:59:41;21.05;;;11.15;;
82779;SDS011;72511;45.120;20.720;2024-02-16T21:09:43;30.10;;;13.93;;
82779;SDS011;72511;45.120;20.720;2024-02-16T21:19:44;26.10;;;11.18;;
82779;SDS011;72511;45.120;20.720;2024-02-16T21:29:48;18.27;;;11.23;;
82779;SDS011;72511;45.120;20.720;2024-02-16T21:39:53;20.42;;;9.68;;
82779;SDS011;72511;45.120;20.720;2024-02-16T21:49:55;23.65;;;11.77;;
82779;SDS011;72511;45.120;20.720;2024-02-16T21:59:56;57.17;;;23.52;;
82779;SDS011;72511;45.120;20.720;2024-02-16T22:09:58;65.70;;;23.15;;
82779;SDS011;72511;45.120;20.720;2024-02-16T22:19:59;166.52;;;49.72;;
82779;SDS011;72511;45.120;20.720;2024-02-16T22:30:00;85.47;;;30.05;;
82779;SDS011;72511;45.120;20.720;2024-02-16T22:40:02;68.82;;;22.92;;
82779;SDS011;72511;45.120;20.720;2024-02-16T22:50:06;30.13;;;14.15;;
82779;SDS011;72511;45.120;20.720;2024-02-16T23:00:08;20.15;;;9.40;;
82779;SDS011;72511;45.120;20.720;2024-02-16T23:10:27;18.38;;;9.55;;
82779;SDS011;72511;45.120;20.720;2024-02-16T23:20:29;15.75;;;10.48;;
82779;SDS011;72511;45.120;20.720;2024-02-16T23:30:31;19.98;;;9.32;;
82779;SDS011;72511;45.120;20.720;2024-02-16T23:40:33;18.42;;;10.15;;
82779;SDS011;72511;45.120;20.720;2024-02-16T23:50:34;37.45;;;17.95;;
